Time;durP1;ratioP1;P1;durP2;ratioP2;P2;SDS_P1;SDS_P2;PMS_P1;PMS_P2;Temp;Humidity;BMP_temperature;BMP_pressure;BME280_temperature;BME280_humidity;BME280_pressure;Samples;Min_cycle;Max_cycle;Signal;HPM_P1;HPM_P2
2023/12/20 00:01:51;;;;;;;;;;;;;;;11.94;50.32;100231.38;4950218;28;99429;-66
2023/12/20 00:04:17;;;;;;;;;;;;;;;11.94;50.56;100233.28;4955908;28;100433;-66
2023/12/20 00:06:43;;;;;;;;;;;;;;;11.94;50.18;100233.28;4942336;28;98657;-66
2023/12/20 00:09:10;;;;;;;;;;;;;;;11.94;50.08;100227.88;4946700;28;97993;-70
2023/12/20 00:11:35;;;;;;;;;;;;;;;11.94;50.11;100227.88;4922576;28;107309;-66
2023/12/20 00:14:02;;;;;;;;;;;;;;;11.92;50.39;100222.75;4925953;28;98214;-66
2023/12/20 00:16:28;;;;;;;;;;;;;;;11.92;50.38;100221.97;4907696;28;98504;-69
2023/12/20 00:18:54;;;;;;;;;;;;;;;11.92;50.19;100217.38;4924275;28;106457;-66
2023/12/20 00:21:20;;;;;;;;;;;;;;;11.92;50.11;100219.25;4907479;28;125965;-70
2023/12/20 00:23:46;;;;;;;;;;;;;;;11.92;50.13;100222.75;4905926;28;122967;-70
2023/12/20 00:26:11;;;;;;;;;;;;;;;11.92;50.23;100222.75;4938951;28;98532;-70
2023/12/20 00:28:37;;;;;;;;;;;;;;;11.91;50.21;100206.84;4936041;28;98931;-71
2023/12/20 00:31:04;;;;;;;;;;;;;;;11.91;50.09;100215.75;4937433;28;98368;-66
2023/12/20 00:33:30;;;;;;;;;;;;;;;11.91;50.19;100214.94;4936016;28;98189;-66
2023/12/20 00:35:56;;;;;;;;;;;;;;;11.91;50.43;100217.66;4898319;28;128549;-66
2023/12/20 00:38:22;;;;;;;;;;;;;;;11.90;50.10;100211.41;4909490;28;98957;-66
2023/12/20 00:40:49;;;;;;;;;;;;;;;11.90;50.32;100211.41;4925963;28;98087;-70
2023/12/20 00:43:16;;;;;;;;;;;;;;;11.90;50.28;100205.22;4939444;28;98661;-66
2023/12/20 00:45:42;;;;;;;;;;;;;;;11.90;50.37;100211.41;4915764;28;98312;-66
2023/12/20 00:48:08;;;;;;;;;;;;;;;11.89;50.20;100201.72;4953194;28;128521;-66
2023/12/20 00:50:34;;;;;;;;;;;;;;;11.89;50.12;100209.81;4942484;28;98308;-66
2023/12/20 00:53:00;;;;;;;;;;;;;;;11.89;50.41;100204.41;4952037;28;98420;-70
2023/12/20 00:55:26;;;;;;;;;;;;;;;11.87;50.34;100203.91;4934384;28;98246;-66
2023/12/20 00:57:53;;;;;;;;;;;;;;;11.88;50.19;100199.31;4943905;28;99538;-71
2023/12/20 01:00:19;;;;;;;;;;;;;;;11.86;50.13;100196.88;4920027;28;98363;-66
2023/12/20 01:02:49;;;;;;;;;;;;;;;11.85;50.34;100200.66;4933836;28;98590;-66
2023/12/20 01:05:15;;;;;;;;;;;;;;;11.83;50.17;100199.28;4955612;28;99715;-70
2023/12/20 01:07:41;;;;;;;;;;;;;;;11.82;50.17;100195.00;4939009;28;103112;-70
2023/12/20 01:10:07;;;;;;;;;;;;;;;11.79;50.06;100188.28;4941539;28;97958;-66
2023/12/20 01:12:33;;;;;;;;;;;;;;;11.77;50.14;100185.84;4909722;28;110494;-71
2023/12/20 01:14:59;;;;;;;;;;;;;;;11.77;50.22;100187.75;4917258;28;107196;-70
2023/12/20 01:17:25;;;;;;;;;;;;;;;11.75;50.15;100184.50;4907159;28;97867;-66
2023/12/20 01:19:51;;;;;;;;;;;;;;;11.74;50.13;100181.00;4917642;28;119502;-66
2023/12/20 01:22:16;;;;;;;;;;;;;;;11.74;50.20;100183.69;4934048;28;126157;-70
2023/12/20 01:24:42;;;;;;;;;;;;;;;11.72;50.25;100185.09;4936187;28;108775;-66
2023/12/20 01:27:08;;;;;;;;;;;;;;;11.72;50.21;100185.09;4951196;28;110513;-70
2023/12/20 01:29:34;;;;;;;;;;;;;;;11.72;50.33;100179.69;4941082;28;105556;-66
2023/12/20 01:32:00;;;;;;;;;;;;;;;11.71;50.23;100183.44;4937012;28;99730;-66
2023/12/20 01:34:26;;;;;;;;;;;;;;;11.71;50.18;100178.88;4952841;28;98364;-66
2023/12/20 01:36:52;;;;;;;;;;;;;;;11.69;50.21;100175.63;4927074;28;98112;-70
2023/12/20 01:39:18;;;;;;;;;;;;;;;11.69;50.38;100166.75;4935869;28;98546;-66
2023/12/20 01:41:47;;;;;;;;;;;;;;;11.68;50.37;100171.34;4923462;28;124221;-70
2023/12/20 01:44:13;;;;;;;;;;;;;;;11.68;50.13;100170.53;4910601;28;128395;-70
2023/12/20 01:46:39;;;;;;;;;;;;;;;11.67;50.16;100169.72;4937905;28;98015;-70
2023/12/20 01:49:05;;;;;;;;;;;;;;;11.67;50.32;100169.72;4928788;28;98110;-70
2023/12/20 01:51:32;;;;;;;;;;;;;;;11.67;50.32;100167.03;4928628;28;98082;-66
2023/12/20 01:53:58;;;;;;;;;;;;;;;11.66;50.36;100162.69;4939006;28;98142;-70
2023/12/20 01:56:24;;;;;;;;;;;;;;;11.66;50.03;100162.69;4929669;28;98350;-67
2023/12/20 01:58:50;;;;;;;;;;;;;;;11.66;50.27;100154.59;4938598;28;113990;-66
2023/12/20 02:01:16;;;;;;;;;;;;;;;11.65;50.18;100150.28;4889203;28;98534;-66
2023/12/20 02:03:42;;;;;;;;;;;;;;;11.65;50.10;100155.69;4922873;28;98013;-70
2023/12/20 02:06:09;;;;;;;;;;;;;;;11.64;50.28;100151.38;4924931;28;98093;-68
2023/12/20 02:08:35;;;;;;;;;;;;;;;11.63;50.10;100148.94;4904032;28;98990;-70
2023/12/20 02:11:01;;;;;;;;;;;;;;;11.63;50.17;100144.38;4933172;28;98176;-70
2023/12/20 02:13:27;;;;;;;;;;;;;;;11.63;50.33;100141.69;4923600;28;98134;-70
2023/12/20 02:15:54;;;;;;;;;;;;;;;11.63;50.30;100136.28;4924693;28;98959;-66
2023/12/20 02:18:20;;;;;;;;;;;;;;;11.61;50.28;100130.34;4937375;28;98603;-66
2023/12/20 02:20:46;;;;;;;;;;;;;;;11.62;50.30;100140.06;4915281;28;120503;-66
2023/12/20 02:23:12;;;;;;;;;;;;;;;11.62;50.20;100128.44;4924205;28;126180;-66
2023/12/20 02:25:38;;;;;;;;;;;;;;;11.61;50.19;100138.44;4905435;28;131181;-70
2023/12/20 02:28:04;;;;;;;;;;;;;;;11.61;50.24;100141.16;4900073;28;98449;-66
2023/12/20 02:30:29;;;;;;;;;;;;;;;11.60;50.35;100131.44;4923419;28;121360;-66
2023/12/20 02:32:55;;;;;;;;;;;;;;;11.60;50.26;100150.34;4939771;28;131133;-66
2023/12/20 02:35:21;;;;;;;;;;;;;;;11.60;50.19;100139.53;4950881;28;98060;-70
2023/12/20 02:37:48;;;;;;;;;;;;;;;11.60;50.34;100144.13;4932060;28;115063;-70
2023/12/20 02:40:14;;;;;;;;;;;;;;;11.59;50.12;100139.81;4950044;28;98036;-67
2023/12/20 02:42:40;;;;;;;;;;;;;;;11.59;50.22;100137.09;4886311;28;98548;-66
2023/12/20 02:45:06;;;;;;;;;;;;;;;11.60;50.17;100141.44;4923889;28;99635;-71
2023/12/20 02:47:32;;;;;;;;;;;;;;;11.58;50.25;100139.00;4922897;28;98384;-66
2023/12/20 02:49:58;;;;;;;;;;;;;;;11.59;50.26;100137.09;4938853;28;99268;-71
2023/12/20 02:52:24;;;;;;;;;;;;;;;11.57;50.37;100129.31;4919006;28;130413;-70
2023/12/20 02:54:50;;;;;;;;;;;;;;;11.58;50.03;100132.81;4934706;28;121960;-71
2023/12/20 02:57:16;;;;;;;;;;;;;;;11.57;50.33;100131.19;4926541;28;98054;-66
2023/12/20 02:59:42;;;;;;;;;;;;;;;11.57;50.22;100133.91;4905047;28;126468;-66
2023/12/20 03:02:08;;;;;;;;;;;;;;;11.56;50.21;100127.69;4922917;28;127378;-66
2023/12/20 03:04:34;;;;;;;;;;;;;;;11.55;50.31;100132.28;4920317;28;112020;-66
2023/12/20 03:07:00;;;;;;;;;;;;;;;11.55;50.30;100126.06;4957573;28;125943;-66
2023/12/20 03:09:26;;;;;;;;;;;;;;;11.55;50.36;100131.47;4912349;28;112167;-66
2023/12/20 03:11:52;;;;;;;;;;;;;;;11.54;50.18;100125.25;4919378;28;107410;-66
2023/12/20 03:14:18;;;;;;;;;;;;;;;11.53;50.21;100120.97;4904574;28;130743;-71
2023/12/20 03:16:50;;;;;;;;;;;;;;;11.54;50.18;100121.75;4891008;28;107707;-66
2023/12/20 03:19:17;;;;;;;;;;;;;;;11.53;50.18;100120.97;4923157;28;98301;-66
2023/12/20 03:21:43;;;;;;;;;;;;;;;11.52;50.32;100119.34;4909806;28;113298;-70
2023/12/20 03:24:09;;;;;;;;;;;;;;;11.52;50.23;100116.66;4923713;28;103567;-66
2023/12/20 03:26:35;;;;;;;;;;;;;;;11.52;50.22;100119.34;4906291;28;127661;-70
2023/12/20 03:29:01;;;;;;;;;;;;;;;11.52;50.16;100115.84;4922201;28;98048;-70
2023/12/20 03:31:27;;;;;;;;;;;;;;;11.51;50.33;100108.81;4952506;28;98571;-66
2023/12/20 03:33:53;;;;;;;;;;;;;;;11.51;50.29;100108.81;4936512;28;128770;-70
2023/12/20 03:36:20;;;;;;;;;;;;;;;11.51;50.19;100117.75;4939183;28;98374;-70
2023/12/20 03:38:46;;;;;;;;;;;;;;;11.52;50.33;100113.16;4919357;28;98406;-70
2023/12/20 03:41:12;;;;;;;;;;;;;;;11.50;50.34;100107.22;4935127;28;98467;-70
2023/12/20 03:43:38;;;;;;;;;;;;;;;11.50;50.32;100107.22;4911432;28;115540;-66
2023/12/20 03:46:04;;;;;;;;;;;;;;;11.49;50.42;100102.91;4934655;28;98084;-66
2023/12/20 03:48:30;;;;;;;;;;;;;;;11.49;50.27;100098.31;4917094;28;98101;-66
2023/12/20 03:50:57;;;;;;;;;;;;;;;11.53;50.17;100109.34;4925410;28;101316;-71
2023/12/20 03:53:23;;;;;;;;;;;;;;;11.62;50.43;100106.84;4937988;28;98132;-66
2023/12/20 03:55:49;;;;;;;;;;;;;;;11.68;50.35;100095.75;4920861;28;102289;-71
2023/12/20 03:58:15;;;;;;;;;;;;;;;11.73;50.17;100109.19;4908949;28;98589;-70
2023/12/20 04:00:41;;;;;;;;;;;;;;;11.78;50.35;100108.34;4928347;28;99906;-66
2023/12/20 04:03:07;;;;;;;;;;;;;;;11.81;50.32;100110.47;4943658;28;98038;-71
2023/12/20 04:05:33;;;;;;;;;;;;;;;11.83;50.40;100113.75;4955127;28;98450;-71
2023/12/20 04:08:01;;;;;;;;;;;;;;;11.85;50.77;100111.53;4940595;28;98877;-71
2023/12/20 04:10:27;;;;;;;;;;;;;;;11.86;50.51;100102.34;4911871;28;98028;-70
2023/12/20 04:12:53;;;;;;;;;;;;;;;11.88;50.59;100102.06;4924161;28;99810;-70
2023/12/20 04:15:19;;;;;;;;;;;;;;;11.88;50.39;100108.28;4913006;28;98368;-66
2023/12/20 04:17:46;;;;;;;;;;;;;;;11.90;50.41;100103.38;4936932;28;98138;-71
2023/12/20 04:20:11;;;;;;;;;;;;;;;11.90;50.47;100103.38;4957755;28;98339;-66
2023/12/20 04:22:37;;;;;;;;;;;;;;;11.90;50.21;100105.28;4938038;28;98398;-66
2023/12/20 04:25:04;;;;;;;;;;;;;;;11.91;50.29;100104.22;4956882;28;99287;-71
2023/12/20 04:27:30;;;;;;;;;;;;;;;11.91;50.50;100094.22;4937712;28;104170;-71
2023/12/20 04:29:59;;;;;;;;;;;;;;;11.91;50.40;100090.72;4938276;28;98335;-71
2023/12/20 04:32:25;;;;;;;;;;;;;;;11.90;50.52;100092.59;4928177;28;99779;-66
2023/12/20 04:34:51;;;;;;;;;;;;;;;11.91;50.39;100096.13;4918481;28;100875;-66
2023/12/20 04:37:17;;;;;;;;;;;;;;;11.90;50.40;100100.69;4908627;28;98007;-67
2023/12/20 04:39:43;;;;;;;;;;;;;;;11.91;50.38;100101.53;4909591;28;98380;-66
2023/12/20 04:42:09;;;;;;;;;;;;;;;11.88;50.34;100094.78;4906524;28;98040;-71
2023/12/20 04:44:34;;;;;;;;;;;;;;;11.89;50.35;100103.69;4900167;28;126420;-71
2023/12/20 04:47:01;;;;;;;;;;;;;;;11.89;50.52;100112.59;4923622;28;107071;-66
2023/12/20 04:49:27;;;;;;;;;;;;;;;11.87;50.30;100095.03;4904274;28;99590;-66
2023/12/20 04:51:52;;;;;;;;;;;;;;;11.87;50.34;100090.47;4910777;28;100074;-66
2023/12/20 04:54:18;;;;;;;;;;;;;;;11.87;50.27;100108.56;4939832;28;126769;-70
2023/12/20 04:56:44;;;;;;;;;;;;;;;11.85;50.41;100114.25;4909866;28;98027;-71
2023/12/20 04:59:10;;;;;;;;;;;;;;;11.85;50.52;100111.53;4927136;28;109621;-66
2023/12/20 05:01:36;;;;;;;;;;;;;;;11.84;50.23;100109.94;4921077;28;116524;-66
2023/12/20 05:04:02;;;;;;;;;;;;;;;11.84;50.42;100107.25;4941643;28;129753;-66
2023/12/20 05:06:28;;;;;;;;;;;;;;;11.84;50.41;100112.63;4923425;28;98224;-66
2023/12/20 05:08:54;;;;;;;;;;;;;;;11.83;50.42;100124.53;4933404;28;98605;-70
2023/12/20 05:11:20;;;;;;;;;;;;;;;11.83;50.45;100124.53;4886333;28;99838;-66
2023/12/20 05:13:47;;;;;;;;;;;;;;;11.81;50.40;100123.97;4921483;28;102315;-66
2023/12/20 05:16:14;;;;;;;;;;;;;;;11.82;50.26;100122.88;4891227;28;98564;-71
2023/12/20 05:18:40;;;;;;;;;;;;;;;11.80;50.49;100127.78;4927129;28;98075;-67
2023/12/20 05:21:06;;;;;;;;;;;;;;;11.80;50.50;100116.97;4940496;28;99700;-66
2023/12/20 05:23:32;;;;;;;;;;;;;;;11.81;50.33;100123.97;4952940;28;98127;-66
2023/12/20 05:25:58;;;;;;;;;;;;;;;11.79;50.52;100132.38;4911484;28;109298;-70
2023/12/20 05:28:25;;;;;;;;;;;;;;;11.78;50.61;100125.34;4909536;28;98907;-66
2023/12/20 05:30:51;;;;;;;;;;;;;;;11.79;50.28;100118.06;4953580;28;99517;-70
2023/12/20 05:33:17;;;;;;;;;;;;;;;11.79;50.49;100120.78;4938339;28;102842;-66
2023/12/20 05:35:43;;;;;;;;;;;;;;;11.79;50.43;100131.56;4929874;28;123930;-70
2023/12/20 05:38:09;;;;;;;;;;;;;;;11.78;50.23;100124.53;4925636;28;98065;-66
2023/12/20 05:40:35;;;;;;;;;;;;;;;11.78;50.41;100135.34;4909885;28;127229;-66
2023/12/20 05:43:02;;;;;;;;;;;;;;;11.77;50.29;100133.72;4904364;28;128458;-66
2023/12/20 05:45:28;;;;;;;;;;;;;;;11.76;50.51;100137.53;4905824;28;98252;-69
2023/12/20 05:47:54;;;;;;;;;;;;;;;11.76;50.37;100146.44;4942174;28;99130;-70
2023/12/20 05:50:21;;;;;;;;;;;;;;;11.75;50.44;100146.69;4925416;28;99177;-70
2023/12/20 05:52:46;;;;;;;;;;;;;;;11.74;50.33;100143.19;4938104;28;98098;-70
2023/12/20 05:55:13;;;;;;;;;;;;;;;11.74;50.53;100137.78;4907521;28;121476;-70
2023/12/20 05:57:38;;;;;;;;;;;;;;;11.73;50.35;100146.19;4919661;28;98022;-66
2023/12/20 06:00:06;;;;;;;;;;;;;;;11.72;50.67;100142.69;4931450;28;127704;-66
2023/12/20 06:02:32;;;;;;;;;;;;;;;11.72;50.38;100152.69;4932978;28;98391;-70
2023/12/20 06:04:58;;;;;;;;;;;;;;;11.72;50.45;100150.78;4927354;28;97978;-69
2023/12/20 06:07:24;;;;;;;;;;;;;;;11.71;50.58;100148.34;4901474;28;98916;-66
2023/12/20 06:09:50;;;;;;;;;;;;;;;11.70;50.29;100152.16;4921262;28;98320;-69
2023/12/20 06:12:16;;;;;;;;;;;;;;;11.69;50.34;100145.13;4902947;28;98139;-69
2023/12/20 06:14:42;;;;;;;;;;;;;;;11.69;50.52;100155.94;4929817;28;126473;-69
2023/12/20 06:17:08;;;;;;;;;;;;;;;11.69;50.40;100159.44;4930131;28;104778;-69
2023/12/20 06:19:34;;;;;;;;;;;;;;;11.68;50.43;100155.13;4948755;28;130021;-66
2023/12/20 06:22:00;;;;;;;;;;;;;;;11.66;50.33;100160.00;4920113;28;98222;-69
2023/12/20 06:24:27;;;;;;;;;;;;;;;11.67;50.30;100164.34;4938848;28;97982;-69
2023/12/20 06:26:55;;;;;;;;;;;;;;;11.66;50.39;100168.09;4936930;28;99778;-66
2023/12/20 06:29:20;;;;;;;;;;;;;;;11.66;50.36;100168.09;4937515;28;98347;-69
2023/12/20 06:31:47;;;;;;;;;;;;;;;11.67;50.60;100166.19;4929557;28;127820;-66
2023/12/20 06:34:13;;;;;;;;;;;;;;;11.67;50.62;100160.81;4916755;28;113144;-66
2023/12/20 06:36:39;;;;;;;;;;;;;;;11.65;50.39;100171.91;4902808;28;99746;-69
2023/12/20 06:39:05;;;;;;;;;;;;;;;11.65;50.48;100168.38;4929811;28;127981;-66
2023/12/20 06:41:30;;;;;;;;;;;;;;;11.65;50.36;100171.09;4919493;28;119186;-69
2023/12/20 06:43:56;;;;;;;;;;;;;;;11.64;50.26;100174.88;4932394;28;120721;-66
2023/12/20 06:46:22;;;;;;;;;;;;;;;11.63;50.35;100171.38;4937504;28;111837;-66
2023/12/20 06:48:48;;;;;;;;;;;;;;;11.64;50.47;100169.47;4933858;28;120613;-66
2023/12/20 06:51:15;;;;;;;;;;;;;;;11.62;50.43;100168.94;4924270;28;104558;-66
2023/12/20 06:53:41;;;;;;;;;;;;;;;11.63;50.45;100174.09;4921029;28;98483;-66
2023/12/20 06:56:07;;;;;;;;;;;;;;;11.62;50.43;100169.75;4918061;28;99523;-69
2023/12/20 06:58:33;;;;;;;;;;;;;;;11.62;50.36;100182.44;4917993;28;105470;-69
2023/12/20 07:00:59;;;;;;;;;;;;;;;11.62;50.40;100177.84;4919699;28;98332;-69
2023/12/20 07:03:25;;;;;;;;;;;;;;;11.62;50.54;100174.34;4903064;28;98048;-69
2023/12/20 07:05:51;;;;;;;;;;;;;;;11.61;50.37;100173.53;4917272;28;119317;-69
2023/12/20 07:08:17;;;;;;;;;;;;;;;11.59;50.48;100181.09;4920783;28;126394;-69
2023/12/20 07:10:43;;;;;;;;;;;;;;;11.59;50.29;100181.09;4910800;28;98246;-66
2023/12/20 07:13:09;;;;;;;;;;;;;;;11.59;50.30;100185.69;4922564;28;104420;-69
2023/12/20 07:15:36;;;;;;;;;;;;;;;11.58;50.31;100190.28;4936999;28;130197;-69
2023/12/20 07:18:02;;;;;;;;;;;;;;;11.57;50.31;100196.78;4933725;28;98476;-69
2023/12/20 07:20:28;;;;;;;;;;;;;;;11.55;50.27;100190.84;4908688;28;111660;-66
2023/12/20 07:22:54;;;;;;;;;;;;;;;11.57;50.40;100190.59;4936528;28;98213;-69
2023/12/20 07:25:20;;;;;;;;;;;;;;;11.55;50.31;100188.97;4921753;28;99566;-69
2023/12/20 07:27:46;;;;;;;;;;;;;;;11.57;50.39;100195.97;4910227;28;124784;-69
2023/12/20 07:30:12;;;;;;;;;;;;;;;11.55;50.41;100188.97;4900167;28;113272;-69
2023/12/20 07:32:38;;;;;;;;;;;;;;;11.56;50.41;100189.78;4920664;28;99154;-69
2023/12/20 07:35:05;;;;;;;;;;;;;;;11.55;50.37;100188.16;4908092;28;98388;-66
2023/12/20 07:37:31;;;;;;;;;;;;;;;11.56;50.38;100197.88;4920083;28;99437;-66
2023/12/20 07:39:57;;;;;;;;;;;;;;;11.57;50.27;100191.38;4920937;28;115214;-70
2023/12/20 07:42:23;;;;;;;;;;;;;;;11.58;50.37;100186.78;4904247;28;115295;-70
2023/12/20 07:44:49;;;;;;;;;;;;;;;11.59;50.33;100183.00;4947005;28;131269;-66
2023/12/20 07:47:18;;;;;;;;;;;;;;;11.61;50.21;100181.63;4934559;28;98347;-70
2023/12/20 07:49:44;;;;;;;;;;;;;;;11.66;50.32;100170.78;4945225;28;100831;-70
2023/12/20 07:52:09;;;;;;;;;;;;;;;11.82;49.99;100170.69;4933668;28;123613;-66
2023/12/20 07:54:35;;;;;;;;;;;;;;;11.85;50.22;100172.84;4921961;28;131872;-66
2023/12/20 07:57:01;;;;;;;;;;;;;;;11.83;49.94;100181.25;4913597;28;127806;-67
2023/12/20 07:59:27;;;;;;;;;;;;;;;11.87;50.02;100182.31;4896985;28;97976;-70
2023/12/20 08:01:53;;;;;;;;;;;;;;;12.00;50.01;100180.84;4933961;28;114772;-66
2023/12/20 08:04:19;;;;;;;;;;;;;;;12.24;49.79;100173.59;4915852;28;128802;-66
2023/12/20 08:06:46;;;;;;;;;;;;;;;12.55;49.62;100169.78;4909684;28;128861;-70
2023/12/20 08:09:12;;;;;;;;;;;;;;;12.87;49.24;100171.81;4911889;28;98311;-66
2023/12/20 08:11:38;;;;;;;;;;;;;;;13.19;49.14;100165.72;4917706;28;98184;-70
2023/12/20 08:14:04;;;;;;;;;;;;;;;13.62;48.50;100166.47;4903736;28;98670;-70
2023/12/20 08:16:30;;;;;;;;;;;;;;;14.23;48.24;100170.09;4919715;28;100294;-70
2023/12/20 08:18:56;;;;;;;;;;;;;;;14.66;48.01;100172.56;4909796;28;99673;-67
2023/12/20 08:21:22;;;;;;;;;;;;;;;15.30;47.70;100172.59;4908766;28;98242;-70
2023/12/20 08:23:49;;;;;;;;;;;;;;;15.23;48.23;100181.94;4949645;28;99252;-67
2023/12/20 08:26:18;;;;;;;;;;;;;;;14.98;48.73;100182.50;4942598;28;98141;-70
2023/12/20 08:28:44;;;;;;;;;;;;;;;14.87;48.71;100181.91;4921072;28;108941;-66
2023/12/20 08:31:16;;;;;;;;;;;;;;;14.83;49.05;100177.38;4923175;28;98302;-66
2023/12/20 08:33:46;;;;;;;;;;;;;;;15.01;48.76;100173.72;4938493;28;99618;-67
2023/12/20 08:36:12;;;;;;;;;;;;;;;15.19;48.64;100169.28;4921000;28;98863;-66
2023/12/20 08:38:38;;;;;;;;;;;;;;;15.12;48.93;100168.91;4934239;28;98284;-66
2023/12/20 08:41:05;;;;;;;;;;;;;;;14.95;49.19;100159.47;4919720;28;98372;-70
2023/12/20 08:43:31;;;;;;;;;;;;;;;14.81;49.21;100160.59;4921387;28;98156;-70
2023/12/20 08:45:57;;;;;;;;;;;;;;;14.70;49.58;100160.81;4950545;28;113999;-68
2023/12/20 08:48:24;;;;;;;;;;;;;;;14.58;49.41;100156.97;4922101;28;98314;-67
2023/12/20 08:50:51;;;;;;;;;;;;;;;14.47;49.72;100161.78;4947428;28;110520;-63
2023/12/20 08:53:18;;;;;;;;;;;;;;;14.39;49.57;100174.13;4919782;28;98102;-67
2023/12/20 08:55:44;;;;;;;;;;;;;;;14.31;49.81;100161.25;4914112;28;97988;-67
2023/12/20 08:58:10;;;;;;;;;;;;;;;14.23;49.67;100176.31;4941877;28;104527;-68
2023/12/20 09:00:36;;;;;;;;;;;;;;;14.14;49.66;100161.81;4941091;28;98031;-64
2023/12/20 09:03:02;;;;;;;;;;;;;;;14.11;49.93;100158.88;4917631;28;130363;-63
2023/12/20 09:05:28;;;;;;;;;;;;;;;14.09;49.70;100151.06;4904778;28;98415;-64
2023/12/20 09:07:54;;;;;;;;;;;;;;;14.12;49.65;100157.81;4916312;28;99307;-67
2023/12/20 09:10:22;;;;;;;;;;;;;;;14.09;49.65;100166.53;4936475;28;98432;-67
2023/12/20 09:12:51;;;;;;;;;;;;;;;14.04;49.65;100161.22;4884728;28;100628;-64
2023/12/20 09:15:17;;;;;;;;;;;;;;;13.98;49.91;100161.28;4918790;28;99300;-63
2023/12/20 09:17:43;;;;;;;;;;;;;;;13.94;49.58;100162.97;4951569;28;127545;-64
2023/12/20 09:20:10;;;;;;;;;;;;;;;13.90;49.89;100155.72;4932625;28;98075;-64
2023/12/20 09:22:38;;;;;;;;;;;;;;;13.83;50.10;100166.16;4907745;28;98270;-63
2023/12/20 09:25:04;;;;;;;;;;;;;;;13.79;49.80;100163.22;4922339;28;98111;-64
2023/12/20 09:27:30;;;;;;;;;;;;;;;13.78;49.98;100156.19;4937562;28;123959;-67
2023/12/20 09:29:56;;;;;;;;;;;;;;;13.82;49.80;100151.78;4920712;28;97993;-65
2023/12/20 09:32:22;;;;;;;;;;;;;;;13.81;49.80;100162.94;4905521;28;98391;-70
2023/12/20 09:34:48;;;;;;;;;;;;;;;13.82;49.79;100167.25;4910288;28;130296;-66
2023/12/20 09:37:14;;;;;;;;;;;;;;;13.80;50.04;100158.63;4935110;28;120188;-69
2023/12/20 09:39:40;;;;;;;;;;;;;;;13.78;49.93;100150.78;4949066;28;98437;-69
2023/12/20 09:42:06;;;;;;;;;;;;;;;13.71;49.80;100145.72;4929468;28;130987;-69
2023/12/20 09:44:34;;;;;;;;;;;;;;;13.63;50.10;100142.91;4918210;28;98180;-69
2023/12/20 09:47:01;;;;;;;;;;;;;;;13.59;49.83;100136.47;4932318;28;98204;-69
2023/12/20 09:49:28;;;;;;;;;;;;;;;13.56;50.23;100139.75;4885868;28;98403;-65
2023/12/20 09:51:54;;;;;;;;;;;;;;;13.59;49.73;100139.97;4904512;28;98539;-65
2023/12/20 09:54:21;;;;;;;;;;;;;;;13.57;50.02;100138.69;4902986;28;103548;-65
2023/12/20 09:56:47;;;;;;;;;;;;;;;13.57;49.79;100136.78;4935960;28;98403;-69
2023/12/20 09:59:14;;;;;;;;;;;;;;;13.54;50.09;100128.44;4918757;28;98031;-69
2023/12/20 10:01:40;;;;;;;;;;;;;;;13.51;50.03;100129.81;4936339;28;98609;-70
2023/12/20 10:04:12;;;;;;;;;;;;;;;13.47;50.22;100140.44;4934684;28;98326;-65
2023/12/20 10:06:42;;;;;;;;;;;;;;;13.43;50.11;100147.53;4915439;28;97982;-66
2023/12/20 10:09:08;;;;;;;;;;;;;;;13.42;49.95;100143.22;4931980;28;98274;-69
2023/12/20 10:11:37;;;;;;;;;;;;;;;13.44;49.92;100127.50;4936555;28;99043;-69
2023/12/20 10:14:03;;;;;;;;;;;;;;;13.46;49.94;100138.03;4957154;28;99498;-70
2023/12/20 10:16:29;;;;;;;;;;;;;;;13.44;50.00;100127.50;4930059;28;98871;-66
2023/12/20 10:18:55;;;;;;;;;;;;;;;13.44;50.13;100126.66;4920397;28;105422;-65
2023/12/20 10:21:22;;;;;;;;;;;;;;;13.44;49.87;100132.09;4934646;28;101720;-65
2023/12/20 10:23:52;;;;;;;;;;;;;;;13.45;50.21;100128.31;4937384;28;99635;-69
2023/12/20 10:26:21;;;;;;;;;;;;;;;13.47;49.95;100112.53;4931700;28;99723;-69
2023/12/20 10:28:51;;;;;;;;;;;;;;;13.53;50.09;100122.22;4935785;28;98099;-65
2023/12/20 10:31:30;;;;;;;;;;;;;;;13.69;49.56;100115.44;4918055;28;98034;-65
2023/12/20 10:34:00;;;;;;;;;;;;;;;13.75;49.75;100099.91;4881302;28;98155;-65
2023/12/20 10:36:29;;;;;;;;;;;;;;;13.94;49.54;100108.78;4915994;28;99978;-65
2023/12/20 10:38:56;;;;;;;;;;;;;;;14.11;49.21;100099.25;4934711;28;99830;-70
2023/12/20 10:41:27;;;;;;;;;;;;;;;14.11;49.65;100099.25;4929300;28;99422;-66
2023/12/20 10:44:00;;;;;;;;;;;;;;;14.07;49.64;100090.13;4901617;28;99592;-70
2023/12/20 10:46:27;;;;;;;;;;;;;;;14.05;49.35;100090.44;4932687;28;98192;-69
2023/12/20 10:48:56;;;;;;;;;;;;;;;14.03;49.81;100089.13;4933751;28;98102;-66
2023/12/20 10:51:23;;;;;;;;;;;;;;;13.98;49.86;100085.41;4919374;28;98115;-70
2023/12/20 10:53:50;;;;;;;;;;;;;;;13.94;49.61;100078.97;4927786;28;98323;-69
2023/12/20 10:56:18;;;;;;;;;;;;;;;13.87;50.12;100084.00;4919458;28;98596;-65
2023/12/20 10:58:44;;;;;;;;;;;;;;;13.82;49.72;100081.38;4933910;28;98376;-70
2023/12/20 11:01:10;;;;;;;;;;;;;;;13.92;49.65;100085.81;4932024;28;100519;-66
2023/12/20 11:03:38;;;;;;;;;;;;;;;14.02;49.81;100071.25;4909490;28;98318;-70
2023/12/20 11:06:10;;;;;;;;;;;;;;;14.14;49.55;100066.16;4911180;28;99073;-69
2023/12/20 11:08:38;;;;;;;;;;;;;;;14.26;49.55;100066.44;4890074;28;100436;-70
2023/12/20 11:11:20;;;;;;;;;;;;;;;14.40;49.28;100058.31;4933551;28;99556;-66
2023/12/20 11:14:01;;;;;;;;;;;;;;;14.34;49.62;100062.22;4947468;28;99525;-69
2023/12/20 11:16:27;;;;;;;;;;;;;;;14.35;49.49;100053.03;4949061;28;98323;-65
2023/12/20 11:18:53;;;;;;;;;;;;;;;14.37;49.45;100048.09;4931042;28;98313;-69
2023/12/20 11:21:19;;;;;;;;;;;;;;;14.35;49.30;100047.59;4920018;28;113310;-66
2023/12/20 11:23:45;;;;;;;;;;;;;;;14.43;49.25;100050.41;4947053;28;97797;-66
2023/12/20 11:26:11;;;;;;;;;;;;;;;14.49;49.60;100054.63;4918681;28;117389;-66
2023/12/20 11:28:37;;;;;;;;;;;;;;;14.57;49.42;100041.47;4920803;28;98230;-66
2023/12/20 11:31:03;;;;;;;;;;;;;;;14.57;49.64;100047.69;4915190;28;127113;-66
2023/12/20 11:33:38;;;;;;;;;;;;;;;14.71;49.29;100036.81;4935683;28;113520;-70
2023/12/20 11:36:13;;;;;;;;;;;;;;;14.90;48.96;100026.63;4920397;28;98799;-70
2023/12/20 11:38:39;;;;;;;;;;;;;;;14.88;49.18;100031.53;4920491;28;98770;-69
2023/12/20 11:41:08;;;;;;;;;;;;;;;14.79;49.32;100021.72;4946676;28;100405;-70
2023/12/20 11:43:37;;;;;;;;;;;;;;;14.73;49.40;100012.88;4936567;28;98932;-66
2023/12/20 11:46:07;;;;;;;;;;;;;;;14.68;49.70;100018.44;4918018;28;99558;-66
2023/12/20 11:48:38;;;;;;;;;;;;;;;14.66;49.48;100017.97;4900901;28;98803;-66
2023/12/20 11:51:10;;;;;;;;;;;;;;;14.66;49.73;100017.97;4918826;28;98069;-69
2023/12/20 11:53:36;;;;;;;;;;;;;;;14.66;49.37;100010.63;4887146;28;98213;-65
2023/12/20 11:56:04;;;;;;;;;;;;;;;14.64;49.70;100012.03;4904928;28;99870;-66
2023/12/20 11:58:30;;;;;;;;;;;;;;;14.57;49.82;100023.28;4913613;28;98281;-66
2023/12/20 12:00:56;;;;;;;;;;;;;;;14.54;49.51;100013.06;4936013;28;98306;-69
2023/12/20 12:03:23;;;;;;;;;;;;;;;14.48;49.79;100009.59;4917878;28;102782;-66
2023/12/20 12:05:50;;;;;;;;;;;;;;;14.47;49.71;100007.22;4933671;28;99596;-69
2023/12/20 12:08:18;;;;;;;;;;;;;;;14.47;49.93;100001.78;4905232;28;98241;-66
2023/12/20 12:10:44;;;;;;;;;;;;;;;14.44;49.65;99995.06;4938883;28;107261;-69
2023/12/20 12:13:11;;;;;;;;;;;;;;;14.40;49.94;99988.63;4924374;28;98380;-70
2023/12/20 12:15:37;;;;;;;;;;;;;;;14.37;49.63;99978.38;4937178;28;98360;-66
2023/12/20 12:18:04;;;;;;;;;;;;;;;14.34;49.82;99980.91;4909714;28;98492;-69
2023/12/20 12:20:31;;;;;;;;;;;;;;;14.31;49.65;99976.13;4919736;28;98410;-66
2023/12/20 12:23:04;;;;;;;;;;;;;;;14.30;49.75;99982.63;4915459;28;104087;-69
2023/12/20 12:25:34;;;;;;;;;;;;;;;14.26;49.71;99977.00;4898311;28;99528;-69
2023/12/20 12:28:00;;;;;;;;;;;;;;;14.21;49.75;99969.78;4899064;28;98110;-69
2023/12/20 12:30:26;;;;;;;;;;;;;;;14.17;49.85;99974.19;4920475;28;100140;-66